Time;durP1;ratioP1;P1;durP2;ratioP2;P2;SDS_P1;SDS_P2;PMS_P1;PMS_P2;Temp;Humidity;BMP_temperature;BMP_pressure;BME280_temperature;BME280_humidity;BME280_pressure;Samples;Min_cycle;Max_cycle;Signal;HPM_P1;HPM_P2
2024/02/11 06:02:05;;;;;;;0.87;0.77;;;;;;;;;;6037546;23;20474;-75
2024/02/11 06:04:31;;;;;;;0.90;0.80;;;;;;;;;;4956684;29;20504;-75
2024/02/11 06:06:57;;;;;;;1.00;0.90;;;;;;;;;;4956641;29;20479;-75
2024/02/11 06:09:24;;;;;;;1.00;0.90;;;;;;;;;;4957418;28;20415;-76
2024/02/11 06:11:50;;;;;;;2.47;0.80;;;;;;;;;;4956471;28;20484;-75
2024/02/11 06:14:16;;;;;;;2.10;0.90;;;;;;;;;;4956524;28;20432;-75
2024/02/11 06:16:42;;;;;;;1.00;0.83;;;;;;;;;;4955454;29;20439;-74
2024/02/11 06:19:09;;;;;;;0.90;0.80;;;;;;;;;;4956531;28;20420;-74
2024/02/11 06:21:35;;;;;;;2.43;0.97;;;;;;;;;;4954740;28;20974;-75
2024/02/11 06:24:04;;;;;;;0.90;0.80;;;;;;;;;;4956140;28;20511;-75
2024/02/11 06:26:30;;;;;;;1.00;0.90;;;;;;;;;;4956534;28;20409;-75
2024/02/11 06:28:58;;;;;;;1.10;1.00;;;;;;;;;;4956150;29;20417;-75
2024/02/11 06:31:24;;;;;;;1.10;1.00;;;;;;;;;;4956023;28;20444;-75
2024/02/11 06:33:51;;;;;;;3.60;1.10;;;;;;;;;;4955939;29;20429;-74
2024/02/11 06:36:17;;;;;;;1.00;0.90;;;;;;;;;;4956146;28;20413;-74
2024/02/11 06:38:44;;;;;;;1.10;1.00;;;;;;;;;;4956069;28;20467;-75
2024/02/11 06:41:10;;;;;;;1.13;1.03;;;;;;;;;;4955895;28;20526;-74
2024/02/11 06:43:36;;;;;;;1.00;0.90;;;;;;;;;;4956055;29;20488;-74
2024/02/11 06:46:03;;;;;;;1.40;1.30;;;;;;;;;;4956003;29;20421;-75
2024/02/11 06:48:29;;;;;;;1.20;1.10;;;;;;;;;;4955885;28;20630;-74
2024/02/11 06:50:55;;;;;;;1.20;1.10;;;;;;;;;;4955866;28;20736;-74
2024/02/11 06:53:21;;;;;;;1.00;0.90;;;;;;;;;;4956039;29;20507;-74
2024/02/11 06:55:47;;;;;;;1.10;1.10;;;;;;;;;;4954679;29;20425;-74
2024/02/11 06:58:13;;;;;;;1.10;1.00;;;;;;;;;;4956011;28;20412;-74
2024/02/11 07:00:39;;;;;;;1.10;1.00;;;;;;;;;;4955614;28;20444;-74
2024/02/11 07:03:05;;;;;;;1.93;1.30;;;;;;;;;;4955496;29;20496;-74
2024/02/11 07:05:31;;;;;;;1.27;1.23;;;;;;;;;;4954376;28;20955;-74
2024/02/11 07:08:00;;;;;;;1.30;1.23;;;;;;;;;;4954298;29;20428;-74
2024/02/11 07:10:26;;;;;;;1.60;1.30;;;;;;;;;;4955307;28;20449;-75
2024/02/11 07:12:52;;;;;;;2.50;1.90;;;;;;;;;;4955473;29;20421;-74
2024/02/11 07:15:19;;;;;;;1.53;1.40;;;;;;;;;;4955494;29;20440;-74
2024/02/11 07:17:45;;;;;;;2.10;1.90;;;;;;;;;;4955554;28;20417;-74
2024/02/11 07:20:14;;;;;;;2.00;1.47;;;;;;;;;;4955035;28;20889;-74
2024/02/11 07:22:42;;;;;;;2.17;1.50;;;;;;;;;;4955498;28;20428;-74
2024/02/11 07:25:08;;;;;;;4.00;1.60;;;;;;;;;;4964988;28;20851;-74
2024/02/11 07:27:34;;;;;;;1.73;1.63;;;;;;;;;;4958418;29;20417;-74
2024/02/11 07:30:00;;;;;;;2.37;1.57;;;;;;;;;;4960507;29;20416;-74
2024/02/11 07:32:26;;;;;;;9.73;2.27;;;;;;;;;;4966476;28;20437;-74
2024/02/11 07:34:56;;;;;;;4.67;2.40;;;;;;;;;;4957442;29;20901;-74
2024/02/11 07:37:22;;;;;;;2.70;1.87;;;;;;;;;;4955488;28;20436;-74
2024/02/11 07:39:48;;;;;;;3.07;2.30;;;;;;;;;;4954727;29;20898;-74
2024/02/11 07:42:15;;;;;;;3.70;2.30;;;;;;;;;;4953603;28;20449;-74
2024/02/11 07:44:41;;;;;;;3.10;1.83;;;;;;;;;;4954815;28;20464;-74
2024/02/11 07:47:09;;;;;;;3.50;2.20;;;;;;;;;;4954767;29;20425;-74
2024/02/11 07:49:36;;;;;;;3.10;2.10;;;;;;;;;;4954575;29;20424;-74
2024/02/11 07:52:02;;;;;;;3.67;2.40;;;;;;;;;;4954641;28;20439;-74
2024/02/11 07:54:28;;;;;;;3.53;1.90;;;;;;;;;;4954661;29;20451;-74
2024/02/11 07:56:54;;;;;;;3.27;2.33;;;;;;;;;;4953528;29;20464;-75
2024/02/11 07:59:21;;;;;;;4.20;3.00;;;;;;;;;;4954779;29;20511;-74
2024/02/11 08:01:47;;;;;;;3.43;2.50;;;;;;;;;;4952991;28;20508;-75
2024/02/11 08:04:16;;;;;;;7.00;3.43;;;;;;;;;;4954498;29;20513;-75
2024/02/11 08:06:42;;;;;;;6.00;2.77;;;;;;;;;;4953286;29;20428;-74
2024/02/11 08:09:09;;;;;;;5.87;3.57;;;;;;;;;;4954405;29;20927;-74
2024/02/11 08:11:35;;;;;;;7.80;3.00;;;;;;;;;;4953878;28;20428;-74
2024/02/11 08:14:03;;;;;;;5.60;3.63;;;;;;;;;;4954166;29;20421;-74
2024/02/11 08:16:29;;;;;;;5.17;3.33;;;;;;;;;;4953979;28;20417;-74
2024/02/11 08:18:55;;;;;;;7.00;3.50;;;;;;;;;;4954389;29;20413;-74
2024/02/11 08:21:21;;;;;;;6.10;3.60;;;;;;;;;;4954083;28;20437;-74
2024/02/11 08:23:48;;;;;;;5.70;3.50;;;;;;;;;;4954122;29;20424;-74
2024/02/11 08:26:13;;;;;;;7.90;3.70;;;;;;;;;;4954230;29;20409;-74
2024/02/11 08:28:39;;;;;;;5.67;3.67;;;;;;;;;;4954376;29;20435;-74
2024/02/11 08:31:05;;;;;;;5.60;3.70;;;;;;;;;;4954022;28;20424;-74
2024/02/11 08:33:32;;;;;;;6.37;3.83;;;;;;;;;;4952078;29;20919;-74
2024/02/11 08:35:58;;;;;;;9.50;4.70;;;;;;;;;;4953002;29;20540;-74
2024/02/11 08:38:24;;;;;;;9.53;5.37;;;;;;;;;;4954456;28;20452;-74
2024/02/11 08:40:51;;;;;;;7.80;4.57;;;;;;;;;;4954430;28;20860;-75
2024/02/11 08:43:19;;;;;;;8.90;5.60;;;;;;;;;;4954417;28;20457;-78
2024/02/11 08:45:45;;;;;;;15.13;5.50;;;;;;;;;;4953875;28;20527;-78
2024/02/11 08:48:12;;;;;;;7.33;4.63;;;;;;;;;;4953820;28;20416;-76
2024/02/11 08:50:38;;;;;;;10.23;4.67;;;;;;;;;;4951326;29;20447;-75
2024/02/11 08:53:05;;;;;;;11.93;4.93;;;;;;;;;;4953843;28;20437;-75
2024/02/11 08:55:31;;;;;;;8.77;4.87;;;;;;;;;;4953874;28;20502;-75
2024/02/11 08:57:59;;;;;;;14.03;4.57;;;;;;;;;;4952647;29;20696;-75
2024/02/11 09:00:26;;;;;;;12.23;4.93;;;;;;;;;;4953799;28;20413;-75
2024/02/11 09:02:52;;;;;;;11.70;5.97;;;;;;;;;;4953648;28;20472;-75
2024/02/11 09:05:20;;;;;;;8.40;4.87;;;;;;;;;;4952934;28;20467;-75
2024/02/11 09:07:46;;;;;;;9.67;4.63;;;;;;;;;;4953116;28;20448;-75
2024/02/11 09:10:14;;;;;;;9.40;4.70;;;;;;;;;;4952886;28;20420;-75
2024/02/11 09:12:40;;;;;;;9.80;4.27;;;;;;;;;;4953209;28;20412;-75
2024/02/11 09:15:08;;;;;;;11.50;5.43;;;;;;;;;;4945757;28;20789;-76
2024/02/11 09:17:37;;;;;;;12.03;4.30;;;;;;;;;;4933919;29;20409;-75
2024/02/11 09:20:04;;;;;;;10.70;4.33;;;;;;;;;;4936026;29;20414;-75
2024/02/11 09:22:32;;;;;;;10.07;5.43;;;;;;;;;;4933230;29;20858;-75
2024/02/11 09:24:58;;;;;;;15.23;4.50;;;;;;;;;;4933056;29;20477;-75
2024/02/11 09:27:24;;;;;;;9.63;5.30;;;;;;;;;;4934259;29;20473;-75
2024/02/11 09:29:51;;;;;;;15.67;5.77;;;;;;;;;;4940377;29;20500;-75
2024/02/11 09:32:17;;;;;;;10.03;4.37;;;;;;;;;;4943233;29;20445;-75
2024/02/11 09:34:43;;;;;;;8.77;4.10;;;;;;;;;;4935615;29;20425;-76
2024/02/11 09:37:10;;;;;;;9.30;4.47;;;;;;;;;;4935308;29;20485;-75
2024/02/11 09:39:36;;;;;;;6.87;3.50;;;;;;;;;;4936907;29;20418;-75
2024/02/11 09:42:02;;;;;;;12.00;5.27;;;;;;;;;;4948963;29;20432;-75
2024/02/11 09:44:30;;;;;;;11.53;4.50;;;;;;;;;;4954263;29;20599;-75
2024/02/11 09:46:58;;;;;;;7.90;4.10;;;;;;;;;;4955961;28;20588;-75
2024/02/11 09:49:25;;;;;;;6.60;4.20;;;;;;;;;;4956065;28;20504;-75
2024/02/11 09:51:53;;;;;;;11.40;4.60;;;;;;;;;;4954433;29;20444;-75
2024/02/11 09:54:19;;;;;;;13.57;4.87;;;;;;;;;;4955683;28;20444;-76
2024/02/11 09:56:45;;;;;;;10.00;4.40;;;;;;;;;;4955811;28;20428;-75
2024/02/11 09:59:12;;;;;;;7.80;3.93;;;;;;;;;;4955762;28;20417;-75
2024/02/11 10:01:41;;;;;;;7.60;4.00;;;;;;;;;;4955486;28;20432;-75
2024/02/11 10:04:07;;;;;;;11.13;4.43;;;;;;;;;;4922127;28;1067460;-75
2024/02/11 10:06:36;;;;;;;8.50;4.70;;;;;;;;;;4964712;28;20551;-75
2024/02/11 10:09:04;;;;;;;9.43;4.17;;;;;;;;;;4946036;28;20512;-76
2024/02/11 10:11:30;;;;;;;6.73;3.97;;;;;;;;;;4935968;29;20442;-76
2024/02/11 10:13:59;;;;;;;6.70;4.03;;;;;;;;;;4936343;29;20428;-75
2024/02/11 10:16:26;;;;;;;5.57;3.93;;;;;;;;;;4947910;29;20463;-75
2024/02/11 10:18:53;;;;;;;8.30;4.23;;;;;;;;;;4955712;29;20947;-76
2024/02/11 10:21:19;;;;;;;6.90;4.67;;;;;;;;;;4955382;28;20440;-76
2024/02/11 10:23:46;;;;;;;8.67;4.20;;;;;;;;;;4955545;29;20424;-76
2024/02/11 10:26:12;;;;;;;7.13;3.63;;;;;;;;;;4957615;28;20442;-77
2024/02/11 10:28:39;;;;;;;12.33;4.57;;;;;;;;;;4939234;29;20432;-76
2024/02/11 10:31:08;;;;;;;9.03;3.93;;;;;;;;;;4939081;29;20445;-76
2024/02/11 10:33:34;;;;;;;9.63;4.53;;;;;;;;;;4940689;29;20420;-76
2024/02/11 10:36:02;;;;;;;9.00;3.90;;;;;;;;;;4956616;28;20425;-76
2024/02/11 10:38:28;;;;;;;9.30;4.30;;;;;;;;;;4956473;28;20736;-76
2024/02/11 10:40:55;;;;;;;7.37;4.50;;;;;;;;;;4954748;29;20484;-76
2024/02/11 10:43:24;;;;;;;11.13;4.40;;;;;;;;;;4956347;28;20920;-76
2024/02/11 10:45:51;;;;;;;5.37;3.67;;;;;;;;;;4956146;28;20468;-76
2024/02/11 10:48:19;;;;;;;5.47;3.70;;;;;;;;;;4954184;29;20425;-76
2024/02/11 10:50:46;;;;;;;7.27;4.00;;;;;;;;;;4937063;29;20434;-76
2024/02/11 10:53:13;;;;;;;6.60;3.87;;;;;;;;;;4936903;29;20477;-76
2024/02/11 10:55:45;;;;;;;8.70;4.07;;;;;;;;;;4940711;29;20929;-76
2024/02/11 10:58:12;;;;;;;10.27;4.27;;;;;;;;;;4936863;29;20718;-76
2024/02/11 11:00:38;;;;;;;6.63;4.20;;;;;;;;;;4936386;29;20444;-76
2024/02/11 11:03:06;;;;;;;9.17;4.27;;;;;;;;;;4935745;29;20446;-76
2024/02/11 11:05:35;;;;;;;11.40;4.43;;;;;;;;;;4936507;29;20487;-76
2024/02/11 11:08:01;;;;;;;9.73;3.67;;;;;;;;;;4935538;29;20929;-76
2024/02/11 11:10:29;;;;;;;13.03;3.90;;;;;;;;;;4936924;29;20844;-77
2024/02/11 11:12:56;;;;;;;8.33;4.30;;;;;;;;;;4936274;29;20413;-76
2024/02/11 11:15:22;;;;;;;5.37;3.70;;;;;;;;;;4934950;29;20421;-77
2024/02/11 11:17:48;;;;;;;6.23;3.50;;;;;;;;;;4935876;29;20789;-76
2024/02/11 11:20:15;;;;;;;8.87;4.90;;;;;;;;;;4934794;29;20413;-76
2024/02/11 11:22:41;;;;;;;4.03;2.80;;;;;;;;;;4935368;29;20430;-76
2024/02/11 11:25:11;;;;;;;4.20;2.63;;;;;;;;;;4954770;29;21001;-76
2024/02/11 11:27:37;;;;;;;4.87;3.40;;;;;;;;;;4957089;29;20417;-77
2024/02/11 11:30:06;;;;;;;7.70;2.70;;;;;;;;;;4955407;29;20626;-76
2024/02/11 11:32:33;;;;;;;5.73;2.60;;;;;;;;;;4955626;28;20478;-78
2024/02/11 11:35:00;;;;;;;7.17;2.77;;;;;;;;;;4956493;29;20940;-76
2024/02/11 11:37:26;;;;;;;5.07;3.00;;;;;;;;;;4950841;29;20413;-71
2024/02/11 11:39:54;;;;;;;8.90;3.50;;;;;;;;;;4935670;29;20418;-76
2024/02/11 11:42:21;;;;;;;5.47;3.03;;;;;;;;;;4935812;29;20503;-76
2024/02/11 11:44:47;;;;;;;4.97;2.90;;;;;;;;;;4937748;29;20487;-75
2024/02/11 11:47:13;;;;;;;11.27;3.10;;;;;;;;;;4941131;29;20639;-76
2024/02/11 11:49:39;;;;;;;4.50;2.47;;;;;;;;;;4935497;29;20936;-76
2024/02/11 11:52:08;;;;;;;6.40;2.70;;;;;;;;;;4935342;29;20441;-75
2024/02/11 11:54:35;;;;;;;4.50;3.00;;;;;;;;;;4935583;29;20421;-76
2024/02/11 11:57:05;;;;;;;4.73;2.83;;;;;;;;;;4935620;29;20418;-76
2024/02/11 11:59:31;;;;;;;5.47;3.50;;;;;;;;;;4935424;29;20421;-75
2024/02/11 12:01:57;;;;;;;11.50;2.60;;;;;;;;;;4935410;29;20438;-76
2024/02/11 12:04:23;;;;;;;6.10;4.23;;;;;;;;;;4933947;29;20476;-76
2024/02/11 12:06:49;;;;;;;5.43;2.60;;;;;;;;;;4935468;29;20422;-75
2024/02/11 12:09:15;;;;;;;6.40;2.83;;;;;;;;;;4936079;29;20402;-76
2024/02/11 12:11:42;;;;;;;9.37;4.20;;;;;;;;;;4935061;29;20570;-75
2024/02/11 12:14:08;;;;;;;4.53;2.63;;;;;;;;;;4935475;29;20444;-76
2024/02/11 12:16:35;;;;;;;5.67;2.40;;;;;;;;;;4935759;29;20468;-76
2024/02/11 12:19:01;;;;;;;5.80;2.60;;;;;;;;;;4935893;29;20413;-76
2024/02/11 12:21:29;;;;;;;3.97;1.97;;;;;;;;;;4954089;28;20443;-75
2024/02/11 12:23:56;;;;;;;7.07;2.60;;;;;;;;;;4953206;29;20420;-75
2024/02/11 12:26:23;;;;;;;9.33;2.07;;;;;;;;;;4954512;28;20520;-76
2024/02/11 12:28:52;;;;;;;6.20;2.30;;;;;;;;;;4954555;28;20417;-76
2024/02/11 12:31:19;;;;;;;5.20;2.27;;;;;;;;;;4952810;29;20448;-76
2024/02/11 12:33:51;;;;;;;3.07;2.20;;;;;;;;;;4953761;28;20417;-76
2024/02/11 12:36:21;;;;;;;3.13;2.00;;;;;;;;;;4954688;28;20420;-76
2024/02/11 12:38:48;;;;;;;4.70;2.23;;;;;;;;;;4953404;29;21010;-76
2024/02/11 12:41:15;;;;;;;4.80;1.73;;;;;;;;;;4940516;28;20445;-75
2024/02/11 12:43:42;;;;;;;4.40;1.70;;;;;;;;;;4935169;29;20418;-76
2024/02/11 12:46:08;;;;;;;2.97;1.90;;;;;;;;;;4935370;29;20545;-76
2024/02/11 12:48:38;;;;;;;2.93;1.60;;;;;;;;;;4936175;29;20414;-75
2024/02/11 12:51:11;;;;;;;1.73;1.47;;;;;;;;;;4934072;29;20857;-75
2024/02/11 12:53:38;;;;;;;4.67;2.17;;;;;;;;;;4935758;29;20474;-75
2024/02/11 12:56:05;;;;;;;6.60;3.10;;;;;;;;;;4936381;29;20932;-75
2024/02/11 12:58:31;;;;;;;2.40;2.10;;;;;;;;;;4952260;29;20500;-76
2024/02/11 13:00:57;;;;;;;4.00;1.43;;;;;;;;;;4957611;29;20422;-76
2024/02/11 13:03:25;;;;;;;2.70;1.60;;;;;;;;;;4958794;29;20513;-75
2024/02/11 13:05:52;;;;;;;3.27;2.90;;;;;;;;;;4960138;29;20480;-75
2024/02/11 13:08:19;;;;;;;3.43;1.80;;;;;;;;;;4959299;29;20409;-76
2024/02/11 13:10:45;;;;;;;2.43;1.57;;;;;;;;;;4965698;29;20445;-76
2024/02/11 13:13:12;;;;;;;2.33;1.73;;;;;;;;;;4978566;28;20419;-76
2024/02/11 13:15:40;;;;;;;2.50;1.57;;;;;;;;;;4978785;28;20432;-75
2024/02/11 13:18:06;;;;;;;1.73;1.20;;;;;;;;;;4966857;28;20408;-76
2024/02/11 13:20:32;;;;;;;4.83;1.40;;;;;;;;;;4961863;28;20443;-75
2024/02/11 13:22:58;;;;;;;2.30;1.80;;;;;;;;;;4964318;29;20420;-75
2024/02/11 13:25:24;;;;;;;5.27;1.37;;;;;;;;;;4964721;28;20559;-75
2024/02/11 13:27:51;;;;;;;5.77;1.73;;;;;;;;;;4966374;28;20412;-75
2024/02/11 13:30:17;;;;;;;1.80;1.60;;;;;;;;;;4961317;29;20762;-75
2024/02/11 13:32:44;;;;;;;1.90;1.40;;;;;;;;;;4963227;29;20428;-75
2024/02/11 13:35:11;;;;;;;7.77;1.77;;;;;;;;;;4958629;28;20980;-75
2024/02/11 13:37:38;;;;;;;1.90;1.63;;;;;;;;;;4958203;28;20479;-76
2024/02/11 13:40:06;;;;;;;2.13;1.13;;;;;;;;;;4938765;29;20429;-76
2024/02/11 13:42:32;;;;;;;1.47;1.40;;;;;;;;;;4939076;29;20441;-75
2024/02/11 13:44:58;;;;;;;1.63;1.30;;;;;;;;;;4954948;29;20476;-76
2024/02/11 13:47:24;;;;;;;6.17;2.50;;;;;;;;;;4951652;29;20421;-76
2024/02/11 13:49:50;;;;;;;1.90;1.50;;;;;;;;;;4946702;29;20473;-76
2024/02/11 13:52:16;;;;;;;2.10;1.47;;;;;;;;;;4939084;29;20480;-75
2024/02/11 13:54:42;;;;;;;1.33;1.23;;;;;;;;;;4938162;29;20497;-75
2024/02/11 13:57:08;;;;;;;3.43;1.50;;;;;;;;;;4938207;29;20751;-76
2024/02/11 13:59:36;;;;;;;1.57;1.50;;;;;;;;;;4938153;29;20418;-76
2024/02/11 14:02:02;;;;;;;1.93;1.70;;;;;;;;;;4938502;29;20438;-75
2024/02/11 14:04:28;;;;;;;2.60;1.57;;;;;;;;;;4938174;29;21000;-75
2024/02/11 14:06:57;;;;;;;1.73;1.30;;;;;;;;;;4937980;29;21009;-76
2024/02/11 14:09:25;;;;;;;3.93;1.90;;;;;;;;;;4936744;29;20472;-75
2024/02/11 14:11:52;;;;;;;1.67;1.60;;;;;;;;;;4950927;29;20543;-76
2024/02/11 14:14:19;;;;;;;5.20;1.97;;;;;;;;;;4954572;28;20417;-76
2024/02/11 14:16:47;;;;;;;2.03;1.33;;;;;;;;;;4956497;28;20935;-75
2024/02/11 14:19:13;;;;;;;4.40;2.20;;;;;;;;;;4955647;29;20949;-76
2024/02/11 14:21:47;;;;;;;2.13;2.00;;;;;;;;;;4956480;28;20440;-76
2024/02/11 14:24:13;;;;;;;2.37;2.00;;;;;;;;;;4956729;28;20520;-76
2024/02/11 14:26:39;;;;;;;2.73;1.43;;;;;;;;;;4955615;29;20421;-76
2024/02/11 14:29:05;;;;;;;2.50;1.37;;;;;;;;;;4955187;29;20430;-75
2024/02/11 14:31:31;;;;;;;1.70;1.30;;;;;;;;;;4956408;28;20799;-76
2024/02/11 14:33:59;;;;;;;2.77;1.60;;;;;;;;;;4956492;28;20538;-76
2024/02/11 14:36:26;;;;;;;2.03;1.60;;;;;;;;;;4957024;28;20421;-76
2024/02/11 14:38:52;;;;;;;1.53;1.43;;;;;;;;;;4956147;29;20571;-76
2024/02/11 14:41:22;;;;;;;1.67;1.30;;;;;;;;;;4942498;28;20470;-76
2024/02/11 14:43:48;;;;;;;1.80;1.40;;;;;;;;;;4937759;29;20975;-75
2024/02/11 14:46:17;;;;;;;3.03;1.27;;;;;;;;;;4937828;29;20501;-75
2024/02/11 14:48:45;;;;;;;5.60;1.10;;;;;;;;;;4938162;29;20782;-76
2024/02/11 14:51:12;;;;;;;1.77;1.50;;;;;;;;;;4936880;29;20433;-76
2024/02/11 14:53:38;;;;;;;1.23;1.17;;;;;;;;;;4936689;29;20789;-76
2024/02/11 14:56:05;;;;;;;3.23;1.70;;;;;;;;;;4935511;29;20430;-76
2024/02/11 14:58:32;;;;;;;2.80;1.60;;;;;;;;;;4935432;29;20428;-76
2024/02/11 15:01:01;;;;;;;9.80;4.30;;;;;;;;;;4935130;29;20508;-76
2024/02/11 15:03:31;;;;;;;3.23;1.60;;;;;;;;;;4964656;29;20491;-76
2024/02/11 15:05:57;;;;;;;2.67;1.97;;;;;;;;;;4954497;29;20476;-75
2024/02/11 15:08:23;;;;;;;8.23;2.00;;;;;;;;;;4948857;29;20420;-76
2024/02/11 15:10:49;;;;;;;1.63;1.60;;;;;;;;;;4934874;29;20846;-76
2024/02/11 15:13:16;;;;;;;4.50;2.03;;;;;;;;;;4937017;29;20413;-76
2024/02/11 15:15:42;;;;;;;1.73;1.00;;;;;;;;;;4936734;29;20418;-76
2024/02/11 15:18:10;;;;;;;3.97;1.40;;;;;;;;;;4936340;29;20929;-76
2024/02/11 15:20:36;;;;;;;2.13;1.30;;;;;;;;;;4936433;29;20448;-76
2024/02/11 15:23:02;;;;;;;1.40;1.20;;;;;;;;;;4935019;29;20422;-76
2024/02/11 15:25:28;;;;;;;2.80;1.20;;;;;;;;;;4935164;29;20555;-76
2024/02/11 15:27:54;;;;;;;2.60;1.77;;;;;;;;;;4936685;29;20441;-76
2024/02/11 15:30:25;;;;;;;1.40;1.10;;;;;;;;;;4935746;29;20442;-76
2024/02/11 15:32:51;;;;;;;2.30;1.10;;;;;;;;;;4936855;29;20421;-76
2024/02/11 15:35:17;;;;;;;3.63;1.33;;;;;;;;;;4935932;29;20501;-76
2024/02/11 15:37:43;;;;;;;3.50;1.20;;;;;;;;;;4935815;29;20414;-76
2024/02/11 15:40:13;;;;;;;2.27;1.50;;;;;;;;;;4935754;29;20413;-76
2024/02/11 15:42:39;;;;;;;1.70;1.63;;;;;;;;;;4948361;29;20421;-76
2024/02/11 15:45:06;;;;;;;2.23;1.60;;;;;;;;;;4935875;29;20516;-75
2024/02/11 15:47:32;;;;;;;3.43;2.00;;;;;;;;;;4935759;29;20485;-77
2024/02/11 15:49:59;;;;;;;1.90;1.87;;;;;;;;;;4935740;29;20417;-75
2024/02/11 15:52:25;;;;;;;5.20;2.10;;;;;;;;;;4934565;29;20973;-75
2024/02/11 15:54:52;;;;;;;5.10;2.07;;;;;;;;;;4935511;29;20902;-76
2024/02/11 15:57:20;;;;;;;3.60;2.20;;;;;;;;;;4934142;29;20425;-76
2024/02/11 15:59:46;;;;;;;3.97;2.07;;;;;;;;;;4935506;29;20413;-76
2024/02/11 16:02:12;;;;;;;3.90;1.70;;;;;;;;;;4948222;29;20861;-75
2024/02/11 16:04:38;;;;;;;5.20;2.67;;;;;;;;;;4954618;29;20460;-76
2024/02/11 16:07:04;;;;;;;6.53;2.23;;;;;;;;;;4954754;29;20483;-75
2024/02/11 16:09:33;;;;;;;5.40;1.53;;;;;;;;;;4954318;29;20416;-75
2024/02/11 16:11:59;;;;;;;3.50;2.23;;;;;;;;;;4952166;29;20455;-75
2024/02/11 16:14:25;;;;;;;3.63;1.83;;;;;;;;;;4953013;29;20999;-75
2024/02/11 16:16:54;;;;;;;5.40;1.70;;;;;;;;;;4954251;29;20416;-75
2024/02/11 16:19:20;;;;;;;2.63;1.80;;;;;;;;;;4954488;29;20976;-75
2024/02/11 16:21:46;;;;;;;1.57;1.50;;;;;;;;;;4953874;28;20445;-75
2024/02/11 16:24:15;;;;;;;3.07;1.80;;;;;;;;;;4954515;28;20413;-75
2024/02/11 16:26:43;;;;;;;2.43;1.50;;;;;;;;;;4954283;28;20476;-75
2024/02/11 16:29:09;;;;;;;3.40;1.80;;;;;;;;;;4953614;28;20915;-75
2024/02/11 16:31:39;;;;;;;1.37;1.30;;;;;;;;;;4940737;29;20772;-75
2024/02/11 16:34:05;;;;;;;2.80;1.40;;;;;;;;;;4954589;29;20420;-75
2024/02/11 16:36:31;;;;;;;2.20;1.70;;;;;;;;;;4953913;28;20417;-75
2024/02/11 16:38:57;;;;;;;2.23;1.70;;;;;;;;;;4954305;29;20789;-75
2024/02/11 16:41:23;;;;;;;2.30;1.40;;;;;;;;;;4964814;29;20437;-74
2024/02/11 16:43:49;;;;;;;2.40;1.60;;;;;;;;;;4954392;29;20951;-75
2024/02/11 16:46:15;;;;;;;1.63;1.37;;;;;;;;;;4952894;29;20551;-75
2024/02/11 16:48:41;;;;;;;4.33;1.47;;;;;;;;;;4952885;29;20519;-75
2024/02/11 16:51:07;;;;;;;2.60;1.63;;;;;;;;;;4949566;29;20446;-75
2024/02/11 16:53:33;;;;;;;1.50;1.23;;;;;;;;;;4935147;29;20432;-75
2024/02/11 16:56:00;;;;;;;6.63;1.60;;;;;;;;;;4933475;29;20444;-75
2024/02/11 16:58:27;;;;;;;3.23;1.70;;;;;;;;;;4933609;29;20926;-76
2024/02/11 17:00:53;;;;;;;2.97;1.57;;;;;;;;;;4958438;29;20440;-76
2024/02/11 17:03:19;;;;;;;2.93;1.97;;;;;;;;;;4958712;28;20447;-76
2024/02/11 17:05:46;;;;;;;6.40;1.93;;;;;;;;;;4962722;28;20464;-76
2024/02/11 17:08:13;;;;;;;7.73;2.37;;;;;;;;;;4955584;28;20416;-75
2024/02/11 17:10:39;;;;;;;12.07;5.20;;;;;;;;;;4943540;29;20537;-75
2024/02/11 17:13:06;;;;;;;16.40;6.50;;;;;;;;;;4935113;29;20449;-75
2024/02/11 17:15:34;;;;;;;27.37;10.30;;;;;;;;;;4934757;29;20418;-75
2024/02/11 17:18:00;;;;;;;13.50;5.63;;;;;;;;;;4934652;29;20497;-75
2024/02/11 17:20:26;;;;;;;17.67;6.50;;;;;;;;;;4939656;29;20456;-75
2024/02/11 17:22:53;;;;;;;16.77;5.63;;;;;;;;;;4953732;28;20444;-76
2024/02/11 17:25:19;;;;;;;8.80;4.57;;;;;;;;;;4953505;28;20465;-75
2024/02/11 17:27:46;;;;;;;8.43;4.53;;;;;;;;;;4953810;28;20479;-75
2024/02/11 17:30:12;;;;;;;14.77;4.03;;;;;;;;;;4948863;29;20469;-75
2024/02/11 17:32:40;;;;;;;18.50;4.87;;;;;;;;;;4934823;29;20410;-75
2024/02/11 17:35:06;;;;;;;17.93;8.00;;;;;;;;;;4934295;29;20783;-75
2024/02/11 17:37:32;;;;;;;16.37;6.33;;;;;;;;;;4935150;29;20465;-75
2024/02/11 17:39:58;;;;;;;16.47;6.23;;;;;;;;;;4933741;29;20418;-74
2024/02/11 17:42:26;;;;;;;7.47;3.30;;;;;;;;;;4934313;29;20469;-76
2024/02/11 17:44:53;;;;;;;6.13;2.77;;;;;;;;;;4935431;29;20759;-75
2024/02/11 17:47:22;;;;;;;8.90;2.23;;;;;;;;;;4934817;29;20429;-75
2024/02/11 17:49:49;;;;;;;10.17;2.97;;;;;;;;;;4948807;29;20766;-74
2024/02/11 17:52:16;;;;;;;15.87;4.20;;;;;;;;;;4959006;28;20425;-75
2024/02/11 17:54:43;;;;;;;7.97;4.63;;;;;;;;;;4956144;29;20429;-74
2024/02/11 17:57:09;;;;;;;6.70;4.40;;;;;;;;;;4955857;29;20461;-74
2024/02/11 17:59:37;;;;;;;9.20;2.90;;;;;;;;;;4949084;28;20513;-75
2024/02/11 18:02:04;;;;;;;18.10;6.23;;;;;;;;;;4937813;29;20956;-75
2024/02/11 18:04:30;;;;;;;17.40;5.77;;;;;;;;;;4935553;29;20556;-75
2024/02/11 18:06:57;;;;;;;17.23;7.13;;;;;;;;;;4936762;29;20432;-75
2024/02/11 18:09:23;;;;;;;18.00;5.97;;;;;;;;;;4936935;29;20421;-75
2024/02/11 18:11:50;;;;;;;11.80;4.43;;;;;;;;;;4945831;29;20441;-75
2024/02/11 18:14:16;;;;;;;6.43;3.83;;;;;;;;;;4936772;29;20413;-75
2024/02/11 18:16:42;;;;;;;9.40;4.67;;;;;;;;;;4937309;29;20877;-76
2024/02/11 18:19:11;;;;;;;10.50;3.90;;;;;;;;;;4945555;29;20416;-76
2024/02/11 18:21:37;;;;;;;12.17;4.47;;;;;;;;;;4954447;29;20443;-78
2024/02/11 18:24:04;;;;;;;10.70;4.57;;;;;;;;;;4935604;29;20417;-77
2024/02/11 18:26:31;;;;;;;17.40;6.27;;;;;;;;;;4936551;29;20784;-77
2024/02/11 18:28:57;;;;;;;16.10;7.33;;;;;;;;;;4936626;29;20424;-77
2024/02/11 18:31:23;;;;;;;15.20;6.50;;;;;;;;;;4949320;29;20450;-77
2024/02/11 18:33:50;;;;;;;18.87;8.00;;;;;;;;;;4953879;29;20512;-77
2024/02/11 18:36:16;;;;;;;14.80;6.63;;;;;;;;;;4955717;28;20413;-77
2024/02/11 18:38:42;;;;;;;11.70;5.50;;;;;;;;;;4956091;28;20413;-77
2024/02/11 18:41:08;;;;;;;12.53;6.10;;;;;;;;;;4954449;29;20439;-77
2024/02/11 18:43:34;;;;;;;16.13;6.07;;;;;;;;;;4954465;29;20425;-77
2024/02/11 18:46:01;;;;;;;19.80;8.00;;;;;;;;;;4964369;28;20555;-77
2024/02/11 18:48:27;;;;;;;19.90;8.90;;;;;;;;;;4964920;28;20455;-77
2024/02/11 18:50:53;;;;;;;8.67;4.00;;;;;;;;;;4964920;28;20805;-77
2024/02/11 18:53:22;;;;;;;8.00;3.73;;;;;;;;;;4962889;28;20433;-77
2024/02/11 18:55:49;;;;;;;5.30;3.20;;;;;;;;;;4957503;28;20857;-77
2024/02/11 18:58:18;;;;;;;6.60;3.27;;;;;;;;;;4958322;28;20417;-77
2024/02/11 19:00:44;;;;;;;7.67;3.47;;;;;;;;;;4956084;28;20966;-78
2024/02/11 19:03:10;;;;;;;6.17;3.13;;;;;;;;;;4956944;28;20428;-78
2024/02/11 19:05:37;;;;;;;4.30;3.10;;;;;;;;;;4956810;28;20491;-77
2024/02/11 19:08:03;;;;;;;8.20;4.43;;;;;;;;;;4957891;28;20409;-78
2024/02/11 19:10:34;;;;;;;8.20;3.87;;;;;;;;;;4955541;29;21789;-77
2024/02/11 19:13:00;;;;;;;8.80;3.50;;;;;;;;;;4940263;28;20416;-77
2024/02/11 19:15:26;;;;;;;4.80;3.67;;;;;;;;;;4939023;29;20417;-78
2024/02/11 19:17:52;;;;;;;6.27;3.37;;;;;;;;;;4938869;29;20418;-77
2024/02/11 19:20:20;;;;;;;8.60;3.47;;;;;;;;;;4936563;29;20417;-78
2024/02/11 19:22:49;;;;;;;9.40;2.87;;;;;;;;;;4938117;29;20425;-77
2024/02/11 19:25:16;;;;;;;6.13;2.70;;;;;;;;;;4936995;29;20916;-77
2024/02/11 19:27:42;;;;;;;7.77;3.33;;;;;;;;;;4935313;29;20441;-76
2024/02/11 19:30:09;;;;;;;13.93;5.83;;;;;;;;;;4939693;29;20426;-76
2024/02/11 19:32:35;;;;;;;12.53;5.70;;;;;;;;;;4941607;28;20468;-76
2024/02/11 19:35:06;;;;;;;9.57;4.10;;;;;;;;;;4936007;29;20418;-77
2024/02/11 19:37:36;;;;;;;10.30;4.63;;;;;;;;;;4951724;29;20900;-78
2024/02/11 19:40:06;;;;;;;5.13;2.97;;;;;;;;;;4954416;28;20440;-79
2024/02/11 19:42:32;;;;;;;6.10;2.90;;;;;;;;;;4939234;29;20954;-78
2024/02/11 19:44:58;;;;;;;5.00;3.03;;;;;;;;;;4940240;29;20480;-78
2024/02/11 19:47:30;;;;;;;9.00;4.20;;;;;;;;;;4949858;29;20421;-78
2024/02/11 19:49:57;;;;;;;5.07;3.00;;;;;;;;;;4952199;29;20486;-79
2024/02/11 19:52:23;;;;;;;10.50;4.80;;;;;;;;;;4956253;28;20434;-78
2024/02/11 19:54:49;;;;;;;17.90;6.37;;;;;;;;;;4938407;29;20413;-78
2024/02/11 19:57:18;;;;;;;21.40;8.40;;;;;;;;;;4937828;29;20425;-77
2024/02/11 19:59:44;;;;;;;16.70;5.27;;;;;;;;;;4935274;29;20505;-77
2024/02/11 20:02:11;;;;;;;17.17;5.87;;;;;;;;;;4934034;29;20540;-79
2024/02/11 20:04:37;;;;;;;9.27;4.63;;;;;;;;;;4934961;29;20885;-78
2024/02/11 20:07:03;;;;;;;5.57;2.30;;;;;;;;;;4938734;29;20417;-77
2024/02/11 20:09:29;;;;;;;4.60;2.40;;;;;;;;;;4945297;29;20437;-76
2024/02/11 20:11:55;;;;;;;9.93;3.10;;;;;;;;;;4953852;28;20432;-77
2024/02/11 20:14:21;;;;;;;20.30;5.97;;;;;;;;;;4955051;29;20416;-78
2024/02/11 20:16:47;;;;;;;13.90;5.00;;;;;;;;;;4955632;29;20422;-78
2024/02/11 20:19:13;;;;;;;14.77;6.13;;;;;;;;;;4957449;29;20434;-78
2024/02/11 20:21:39;;;;;;;13.67;5.30;;;;;;;;;;4956559;28;20453;-77
2024/02/11 20:24:07;;;;;;;7.00;4.30;;;;;;;;;;4956487;29;20481;-77
2024/02/11 20:26:34;;;;;;;14.70;5.03;;;;;;;;;;4948587;29;20489;-77
2024/02/11 20:29:00;;;;;;;15.47;5.17;;;;;;;;;;4937709;29;20846;-78
2024/02/11 20:31:26;;;;;;;9.70;3.53;;;;;;;;;;4937205;29;20537;-77
2024/02/11 20:33:56;;;;;;;11.47;3.60;;;;;;;;;;4937072;29;20417;-78
2024/02/11 20:36:22;;;;;;;12.83;4.17;;;;;;;;;;4935662;29;20484;-77
2024/02/11 20:38:48;;;;;;;9.83;4.20;;;;;;;;;;4935330;29;20417;-77